Time;durP1;ratioP1;P1;durP2;ratioP2;P2;SDS_P1;SDS_P2;PMS_P1;PMS_P2;Temp;Humidity;BMP_temperature;BMP_pressure;BME280_temperature;BME280_humidity;BME280_pressure;Samples;Min_cycle;Max_cycle;Signal;HPM_P1;HPM_P2
2022/12/27 00:00:29;;;;;;;;;1.00;1.00;;;;;8.85;100.00;102450.44;5073303;28;51496;-73
2022/12/27 00:02:55;;;;;;;;;5.25;2.00;;;;;8.85;100.00;102454.81;5057344;28;56542;-76
2022/12/27 00:05:20;;;;;;;;;3.00;2.00;;;;;8.86;100.00;102457.50;5057700;28;45288;-77
2022/12/27 00:07:45;;;;;;;;;3.50;2.75;;;;;8.82;100.00;102449.41;5056952;28;63972;-75
2022/12/27 00:10:11;;;;;;;;;5.50;4.25;;;;;8.83;100.00;102462.63;5057690;28;45480;-76
2022/12/27 00:12:36;;;;;;;;;3.75;1.75;;;;;8.82;100.00;102466.09;5054657;28;54013;-74
2022/12/27 00:15:03;;;;;;;;;3.00;3.00;;;;;8.74;100.00;102453.44;5057465;28;50868;-76
2022/12/27 00:17:28;;;;;;;;;2.00;2.00;;;;;8.77;100.00;102467.63;5057260;28;47256;-74
2022/12/27 00:19:54;;;;;;;;;4.25;4.25;;;;;8.71;100.00;102462.09;5056540;28;45423;-75
2022/12/27 00:22:19;;;;;;;;;5.25;3.00;;;;;8.71;100.00;102467.34;5056130;28;45496;-75
2022/12/27 00:24:46;;;;;;;;;2.00;2.00;;;;;8.63;100.00;102459.13;5057895;28;45387;-75
2022/12/27 00:27:11;;;;;;;;;4.75;3.00;;;;;8.61;100.00;102454.59;5057243;28;45635;-74
2022/12/27 00:29:36;;;;;;;;;4.00;1.00;;;;;8.58;100.00;102460.66;5057687;28;45209;-76
2022/12/27 00:32:02;;;;;;;;;5.25;2.00;;;;;8.58;100.00;102467.66;5057324;28;45601;-79
2022/12/27 00:34:27;;;;;;;;;12.00;3.50;;;;;8.56;100.00;102472.81;5057542;28;45406;-78
2022/12/27 00:36:53;;;;;;;;;4.25;2.00;;;;;8.49;100.00;102468.13;5056558;28;62673;-77
2022/12/27 00:39:18;;;;;;;;;5.00;3.00;;;;;8.53;100.00;102471.81;5056394;28;59036;-76
2022/12/27 00:41:43;;;;;;;;;2.00;2.00;;;;;8.53;100.00;102477.06;5057804;28;45497;-75
2022/12/27 00:44:09;;;;;;;;;2.50;1.75;;;;;8.50;100.00;102476.91;5056673;28;54671;-76
2022/12/27 00:46:34;;;;;;;;;2.25;2.25;;;;;8.50;100.00;102476.91;5057005;28;46357;-75
2022/12/27 00:49:00;;;;;;;;;5.50;3.00;;;;;8.45;100.00;102478.44;5055925;28;45266;-75
2022/12/27 00:51:26;;;;;;;;;2.25;2.00;;;;;8.51;100.00;102483.97;5055751;28;45411;-75
2022/12/27 00:53:52;;;;;;;;;6.50;2.25;;;;;8.52;100.00;102481.44;5057121;28;50916;-74
2022/12/27 00:56:26;;;;;;;;;1.25;1.25;;;;;8.57;100.00;102478.97;5048997;28;46408;-75
2022/12/27 00:58:53;;;;;;;;;1.50;1.00;;;;;8.56;100.00;102479.81;5050321;28;45486;-75
2022/12/27 01:01:19;;;;;;;;;1.00;1.00;;;;;8.62;100.00;102491.53;5056225;28;45383;-76
2022/12/27 01:03:45;;;;;;;;;0.75;0.75;;;;;8.66;100.00;102497.84;5057052;28;45486;-74
2022/12/27 01:06:13;;;;;;;;;1.00;1.00;;;;;8.63;100.00;102488.09;5056636;28;61172;-75
2022/12/27 01:08:39;;;;;;;;;2.00;2.00;;;;;8.72;100.00;102494.59;5059386;28;46615;-74
2022/12/27 01:11:05;;;;;;;;;0.75;0.75;;;;;8.69;100.00;102489.19;5072713;28;45182;-76
2022/12/27 01:13:31;;;;;;;;;1.00;1.00;;;;;8.72;100.00;102494.59;5054666;28;45481;-74
2022/12/27 01:15:56;;;;;;;;;5.75;2.00;;;;;8.78;100.00;102506.28;5055537;28;46222;-75
2022/12/27 01:18:22;;;;;;;;;3.00;1.00;;;;;8.75;100.00;102489.47;5056118;28;57177;-76
2022/12/27 01:20:47;;;;;;;;;1.25;1.25;;;;;8.74;100.00;102485.94;5056732;28;45594;-75
2022/12/27 01:23:12;;;;;;;;;2.00;1.00;;;;;8.81;100.00;102487.09;5055773;28;53382;-75
2022/12/27 01:25:38;;;;;;;;;2.00;2.00;;;;;8.88;100.00;102494.44;5071456;28;59902;-76
2022/12/27 01:28:04;;;;;;;;;3.50;2.00;;;;;8.88;100.00;102495.34;5056108;28;61888;-75
2022/12/27 01:30:29;;;;;;;;;0.25;0.25;;;;;8.92;100.00;102496.38;5056707;28;45375;-74
2022/12/27 01:32:54;;;;;;;;;1.00;1.00;;;;;8.93;100.00;102491.19;5056452;28;51716;-74
2022/12/27 01:35:20;;;;;;;;;0.25;0.25;;;;;8.92;100.00;102484.13;5055971;28;62594;-75
2022/12/27 01:37:45;;;;;;;;;1.25;1.25;;;;;8.98;100.00;102496.66;5055640;28;60371;-74
2022/12/27 01:40:11;;;;;;;;;2.00;1.00;;;;;9.01;100.00;102501.19;5056259;28;49673;-75
2022/12/27 01:42:51;;;;;;;;;3.00;1.00;;;;;8.99;100.00;102498.44;5056575;28;45436;-75
2022/12/27 01:45:19;;;;;;;;;6.00;2.00;;;;;9.01;100.00;102506.44;5070345;28;46512;-77
2022/12/27 01:48:09;;;;;;;;;2.00;0.50;;;;;9.01;100.00;102514.34;5056102;28;45480;-74
2022/12/27 01:50:38;;;;;;;;;5.25;2.00;;;;;9.02;100.00;102503.88;5055092;28;45305;-75
2022/12/27 01:53:19;;;;;;;;;3.00;2.00;;;;;9.02;100.00;102511.78;5055026;28;45424;-75
2022/12/27 01:55:52;;;;;;;;;3.00;1.00;;;;;8.97;100.00;102502.75;5042883;28;45309;-75
2022/12/27 01:58:22;;;;;;;;;3.00;1.25;;;;;9.00;100.00;102500.28;5055930;28;45441;-75
2022/12/27 02:00:48;;;;;;;;;1.75;1.75;;;;;9.01;100.00;102506.44;5056333;28;45391;-79
2022/12/27 02:03:18;;;;;;;;;1.00;1.00;;;;;9.02;100.00;102505.59;5056579;28;45283;-76
2022/12/27 02:05:43;;;;;;;;;3.00;1.00;;;;;9.02;100.00;102509.13;5068062;28;46202;-75
2022/12/27 02:08:21;;;;;;;;;2.00;1.00;;;;;9.02;100.00;102517.03;5072115;28;45313;-75
2022/12/27 02:10:47;;;;;;;;;2.50;0.50;;;;;9.02;100.00;102524.94;5054175;28;45427;-76
2022/12/27 02:13:13;;;;;;;;;3.75;2.00;;;;;8.98;100.00;102522.09;5069922;28;45501;-75
2022/12/27 02:15:38;;;;;;;;;2.50;1.00;;;;;8.99;100.00;102519.53;5054751;28;45358;-76
2022/12/27 02:18:04;;;;;;;;;1.75;1.25;;;;;8.92;100.00;102513.09;5055606;28;60987;-75
2022/12/27 02:20:37;;;;;;;;;3.25;1.00;;;;;8.93;100.00;102514.88;5055925;28;45609;-75
2022/12/27 02:26:35;;;;;;;;;3.50;1.00;;;;;9.00;100.00;102517.78;5056087;28;45391;-74
2022/12/27 02:29:13;;;;;;;;;2.75;2.00;;;;;8.95;100.00;102516.69;5055878;28;45268;-75
2022/12/27 02:31:57;;;;;;;;;2.25;1.00;;;;;8.99;100.00;102521.25;5055805;28;45331;-74
2022/12/27 02:34:26;;;;;;;;;0.75;0.75;;;;;8.94;100.00;102513.16;5055915;28;45343;-76
2022/12/27 02:36:56;;;;;;;;;1.00;1.00;;;;;8.98;100.00;102517.72;5058051;28;46431;-76
2022/12/27 02:39:22;;;;;;;;;1.00;1.00;;;;;8.99;100.00;102513.34;5074669;28;45617;-77
2022/12/27 02:53:02;;;;;;;;;2.33;0.67;;;;;8.99;100.00;102519.53;5058984;28;45417;-75
2022/12/27 02:57:07;;;;;;;;;3.00;0.00;;;;;9.00;100.00;102515.16;5051804;28;45185;-75
2022/12/27 02:58:37;;;;;;;;;1.00;1.00;;;;;8.98;100.00;102515.09;5054931;28;45380;-76
2022/12/27 03:04:01;;;;;;;;;1.00;1.00;;;;;8.89;100.00;102520.88;5059054;28;45183;-75
2022/12/27 03:06:40;;;;;;;;;0.00;0.00;;;;;8.96;100.00;102543.13;5059219;28;45372;-74
2022/12/27 03:09:09;;;;;;;;;0.75;0.75;;;;;8.97;100.00;102537.00;5073612;28;45763;-75
2022/12/27 03:17:33;;;;;;;;;2.00;0.25;;;;;8.90;100.00;102524.41;5072117;28;45322;-76
2022/12/27 03:25:33;;;;;;;;;4.25;1.00;;;;;8.93;100.00;102511.34;5058609;28;45193;-75
2022/12/27 03:34:34;;;;;;;;;1.00;1.00;;;;;8.97;100.00;102530.84;5054389;28;45348;-73
2022/12/27 03:40:17;;;;;;;;;4.75;1.25;;;;;8.99;100.00;102529.16;5057297;28;45301;-75
2022/12/27 03:48:30;;;;;;;;;2.75;1.00;;;;;8.98;100.00;102528.25;5060123;28;45418;-75
2022/12/27 03:51:03;;;;;;;;;1.00;1.00;;;;;9.00;100.00;102536.22;5057316;28;45594;-75
2022/12/27 03:53:38;;;;;;;;;1.00;1.00;;;;;8.93;100.00;102528.06;5052846;28;45828;-78
2022/12/27 03:56:05;;;;;;;;;1.50;0.75;;;;;8.93;100.00;102525.41;5047343;28;45338;-76
2022/12/27 03:58:30;;;;;;;;;0.00;0.00;;;;;8.99;100.00;102537.97;5072139;28;45417;-74
2022/12/27 04:00:56;;;;;;;;;1.00;1.00;;;;;8.91;100.00;102527.09;5073111;28;56775;-75
2022/12/27 04:03:21;;;;;;;;;3.00;1.75;;;;;8.98;100.00;102533.53;5051494;28;62080;-76
2022/12/27 04:05:46;;;;;;;;;0.00;0.00;;;;;9.00;100.00;102538.88;5057421;28;54098;-77
2022/12/27 04:35:31;;;;;;;;;1.00;1.00;;;;;8.73;100.00;102534.16;5057304;28;45306;-77
2022/12/27 04:37:56;;;;;;;;;0.00;0.00;;;;;8.69;100.00;102537.50;5062174;28;56885;-77
2022/12/27 04:56:54;;;;;;;;;2.00;2.00;;;;;8.57;100.00;102529.91;5045803;28;45326;-75
2022/12/27 05:02:03;;;;;;;;;1.00;1.00;;;;;8.57;100.00;102529.00;5049441;28;45459;-74
2022/12/27 05:04:33;;;;;;;;;1.00;1.00;;;;;8.61;100.00;102526.59;5046455;28;45148;-75
2022/12/27 05:13:58;;;;;;;;;5.50;2.00;;;;;8.64;100.00;102528.47;5051587;28;46333;-74
2022/12/27 05:15:12;;;;;;;;;2.75;2.00;;;;;8.60;100.00;102521.25;5050994;28;45334;-78
2022/12/27 05:17:38;;;;;;;;;3.00;1.25;;;;;8.68;100.00;102535.66;5059555;28;60653;-75
2022/12/27 05:20:03;;;;;;;;;2.75;1.00;;;;;8.64;100.00;102520.59;5050226;28;58465;-75
2022/12/27 05:27:56;;;;;;;;;5.25;1.50;;;;;8.70;100.00;102526.13;5056625;28;45442;-75
2022/12/27 05:30:22;;;;;;;;;4.25;1.00;;;;;8.74;100.00;102528.06;5056095;28;57114;-76
2022/12/27 05:32:47;;;;;;;;;1.00;1.00;;;;;8.76;100.00;102534.31;5061691;28;54237;-77
2022/12/27 05:35:12;;;;;;;;;1.25;1.00;;;;;8.74;100.00;102521.91;5051142;28;53090;-75
2022/12/27 05:37:38;;;;;;;;;1.50;1.50;;;;;8.73;100.00;102510.44;5073582;22;61108;-78
2022/12/27 05:40:03;;;;;;;;;1.00;1.00;;;;;8.74;100.00;102512.28;5036730;28;58521;-75
2022/12/27 05:42:30;;;;;;;;;0.75;0.75;;;;;8.79;100.00;102525.63;5036229;28;45352;-76
2022/12/27 05:44:55;;;;;;;;;3.50;1.00;;;;;8.77;100.00;102525.56;5035787;28;53335;-74
2022/12/27 05:47:21;;;;;;;;;3.00;1.50;;;;;8.79;100.00;102526.56;5030997;28;67225;-76
2022/12/27 05:49:46;;;;;;;;;1.00;1.00;;;;;8.74;100.00;102517.53;5035068;28;45604;-75
2022/12/27 05:52:11;;;;;;;;;2.50;2.00;;;;;8.76;100.00;102523.78;5035559;28;56597;-76
2022/12/27 05:54:37;;;;;;;;;2.50;1.75;;;;;8.71;100.00;102514.75;5035887;28;53086;-75
2022/12/27 05:57:02;;;;;;;;;1.00;1.00;;;;;8.70;100.00;102506.78;5035599;28;60963;-77
2022/12/27 05:59:27;;;;;;;;;1.00;1.00;;;;;8.59;100.00;102494.03;5035996;28;45438;-76
2022/12/27 06:01:53;;;;;;;;;1.00;1.00;;;;;8.58;100.00;102501.88;5034314;28;57575;-74
2022/12/27 06:04:18;;;;;;;;;3.00;0.50;;;;;8.68;100.00;102511.06;5036557;28;45280;-75
2022/12/27 06:06:43;;;;;;;;;1.25;1.00;;;;;8.65;100.00;102502.22;5035558;28;59554;-75
2022/12/27 06:09:09;;;;;;;;;5.75;0.50;;;;;8.68;100.00;102497.91;5032715;28;45543;-75
2022/12/27 06:11:34;;;;;;;;;3.00;1.00;;;;;8.66;100.00;102493.47;5029511;28;45365;-75
2022/12/27 06:13:59;;;;;;;;;2.00;1.00;;;;;8.64;100.00;102491.63;5036670;28;50496;-75
2022/12/27 06:16:25;;;;;;;;;1.00;1.00;;;;;8.69;100.00;102500.63;5039450;28;47219;-76
2022/12/27 06:18:50;;;;;;;;;0.50;0.50;;;;;8.61;100.00;102488.84;5037641;28;56850;-76
2022/12/27 06:21:19;;;;;;;;;1.75;1.00;;;;;8.66;100.00;102500.47;5039195;28;51329;-74
2022/12/27 06:23:45;;;;;;;;;2.00;0.00;;;;;8.67;100.00;102507.53;5039481;28;45358;-75
2022/12/27 06:26:20;;;;;;;;;1.00;1.00;;;;;8.65;100.00;102510.13;5039406;28;46118;-75
2022/12/27 06:28:48;;;;;;;;;2.00;1.00;;;;;8.64;100.00;102510.06;5038045;28;45371;-77
2022/12/27 06:31:14;;;;;;;;;3.00;1.25;;;;;8.66;100.00;102516.28;5039036;28;45332;-76
2022/12/27 06:33:39;;;;;;;;;1.50;1.00;;;;;8.67;100.00;102520.72;5055051;28;45407;-74
2022/12/27 06:36:09;;;;;;;;;1.00;1.00;;;;;8.68;100.00;102513.69;5038329;28;63610;-75
2022/12/27 06:38:35;;;;;;;;;0.25;0.25;;;;;8.65;100.00;102504.84;5058476;28;45550;-74
2022/12/27 06:41:04;;;;;;;;;3.75;1.00;;;;;8.59;100.00;102493.16;5039922;28;45416;-75
2022/12/27 06:43:30;;;;;;;;;1.25;0.75;;;;;8.63;100.00;102508.25;5039112;28;45494;-75
2022/12/27 06:45:59;;;;;;;;;2.25;1.00;;;;;8.63;100.00;102514.41;5038822;28;46519;-76
2022/12/27 06:48:25;;;;;;;;;2.50;2.00;;;;;8.63;100.00;102510.88;5037128;28;45511;-76
2022/12/27 06:50:51;;;;;;;;;0.25;0.25;;;;;8.62;100.00;102512.59;5038866;28;45342;-74
2022/12/27 06:53:16;;;;;;;;;1.00;1.00;;;;;8.57;100.00;102500.06;5038915;28;45188;-78
2022/12/27 06:55:42;;;;;;;;;7.75;1.25;;;;;8.59;100.00;102504.56;5038870;28;46162;-75
2022/12/27 06:58:07;;;;;;;;;1.75;1.00;;;;;8.56;100.00;102511.41;5038389;28;52007;-76
2022/12/27 07:00:32;;;;;;;;;1.00;1.00;;;;;8.59;100.00;102517.72;5038938;28;45443;-78
2022/12/27 07:02:58;;;;;;;;;3.00;1.50;;;;;8.59;100.00;102517.72;5038332;28;53003;-77
2022/12/27 07:05:23;;;;;;;;;5.00;2.00;;;;;8.58;100.00;102507.16;5038098;28;58105;-77
2022/12/27 07:07:48;;;;;;;;;4.25;2.00;;;;;8.54;100.00;102500.81;5038334;28;56779;-73
2022/12/27 07:10:14;;;;;;;;;2.00;2.00;;;;;8.57;100.00;102506.22;5026523;28;45903;-75
2022/12/27 07:12:39;;;;;;;;;5.25;2.75;;;;;8.58;100.00;102515.94;5035470;28;45481;-75
2022/12/27 07:15:06;;;;;;;;;2.00;2.00;;;;;8.55;100.00;102507.00;5038083;28;59029;-77
2022/12/27 07:17:33;;;;;;;;;5.00;2.00;;;;;8.57;100.00;102513.22;5038332;28;45361;-77
2022/12/27 07:19:59;;;;;;;;;1.50;1.50;;;;;8.57;100.00;102508.84;5038781;28;45310;-75
2022/12/27 07:22:25;;;;;;;;;2.00;2.00;;;;;8.58;100.00;102518.56;5037013;28;51528;-75
2022/12/27 07:24:51;;;;;;;;;2.25;2.25;;;;;8.56;100.00;102508.78;5038412;28;46711;-77
2022/12/27 07:27:16;;;;;;;;;1.00;1.00;;;;;8.61;100.00;102523.97;5036714;28;60450;-75
2022/12/27 07:29:41;;;;;;;;;2.00;2.00;;;;;8.58;100.00;102515.03;5037977;28;53181;-74
2022/12/27 07:32:07;;;;;;;;;3.75;2.00;;;;;8.61;100.00;102520.44;5036477;28;58201;-75
2022/12/27 07:34:32;;;;;;;;;2.00;1.00;;;;;8.61;100.00;102508.16;5037590;28;60112;-77
2022/12/27 07:36:57;;;;;;;;;1.00;1.00;;;;;8.65;100.00;102525.00;5038063;28;47296;-74
2022/12/27 07:39:23;;;;;;;;;2.00;1.75;;;;;8.66;100.00;102527.72;5045482;28;54587;-75
2022/12/27 07:41:48;;;;;;;;;1.25;1.25;;;;;8.73;100.00;102531.50;5037623;28;48897;-76
2022/12/27 07:44:13;;;;;;;;;2.75;1.00;;;;;8.72;100.00;102524.44;5037376;28;61129;-76
2022/12/27 07:46:39;;;;;;;;;3.00;1.75;;;;;8.76;100.00;102529.03;5037769;28;45380;-75
2022/12/27 07:49:04;;;;;;;;;2.50;1.25;;;;;8.77;100.00;102520.28;5038328;28;45740;-75
2022/12/27 07:51:30;;;;;;;;;1.75;1.75;;;;;8.75;100.00;102518.44;5037867;28;45384;-75
2022/12/27 07:53:55;;;;;;;;;2.25;2.25;;;;;8.80;100.00;102533.63;5037879;28;49749;-75
2022/12/27 07:56:25;;;;;;;;;5.00;3.00;;;;;8.75;100.00;102524.59;5036666;28;45360;-75
2022/12/27 07:58:51;;;;;;;;;2.00;2.00;;;;;8.72;100.00;102523.56;5030643;28;45394;-75
2022/12/27 08:01:18;;;;;;;;;1.25;1.25;;;;;8.74;100.00;102524.53;5037965;28;45213;-75
2022/12/27 08:03:44;;;;;;;;;4.00;1.00;;;;;8.78;100.00;102532.63;5037600;28;46102;-75
2022/12/27 08:06:22;;;;;;;;;3.25;2.75;;;;;8.74;100.00;102519.28;5037803;28;45246;-75
2022/12/27 08:08:49;;;;;;;;;5.00;2.00;;;;;8.72;100.00;102521.81;5052912;28;45327;-74
2022/12/27 08:11:14;;;;;;;;;1.00;1.00;;;;;8.71;100.00;102517.38;5026467;28;45533;-75
2022/12/27 08:13:39;;;;;;;;;4.00;3.00;;;;;8.75;100.00;102526.34;5034469;28;48510;-75
2022/12/27 08:16:05;;;;;;;;;1.75;1.00;;;;;8.71;100.00;102517.38;5052641;28;58307;-75
2022/12/27 08:18:31;;;;;;;;;5.00;2.50;;;;;8.75;100.00;102537.78;5037611;28;45299;-75
2022/12/27 08:20:56;;;;;;;;;3.50;3.50;;;;;8.75;100.00;102531.59;5037467;28;49342;-74
2022/12/27 08:23:21;;;;;;;;;2.50;1.25;;;;;8.75;100.00;102542.16;5036802;28;63340;-76
2022/12/27 08:25:47;;;;;;;;;6.00;3.75;;;;;8.68;100.00;102526.88;5036831;28;61035;-78
2022/12/27 08:28:14;;;;;;;;;6.50;4.25;;;;;8.68;100.00;102526.88;5032723;28;45269;-75
2022/12/27 08:30:42;;;;;;;;;3.50;3.50;;;;;8.73;100.00;102543.78;5037568;28;45652;-75
2022/12/27 08:33:08;;;;;;;;;2.25;2.25;;;;;8.68;100.00;102529.50;5036687;28;46094;-74
2022/12/27 08:35:38;;;;;;;;;6.00;2.00;;;;;8.62;100.00;102512.59;5052790;28;45384;-75
2022/12/27 08:38:03;;;;;;;;;2.50;1.50;;;;;8.66;100.00;102535.59;5039196;28;45434;-76
2022/12/27 08:40:29;;;;;;;;;4.00;2.75;;;;;8.63;100.00;102527.59;5043334;28;45200;-78
2022/12/27 08:42:54;;;;;;;;;2.00;2.00;;;;;8.70;100.00;102548.94;5035964;28;62989;-76
2022/12/27 08:45:19;;;;;;;;;3.25;3.00;;;;;8.68;100.00;102551.47;5037421;28;45178;-76
2022/12/27 08:47:45;;;;;;;;;6.75;3.00;;;;;8.68;100.00;102545.31;5036611;28;54465;-75
2022/12/27 08:50:10;;;;;;;;;4.25;2.00;;;;;8.71;100.00;102551.63;5036755;28;49589;-75
2022/12/27 08:52:35;;;;;;;;;3.50;2.50;;;;;8.71;100.00;102545.47;5036102;28;64624;-75
2022/12/27 08:55:02;;;;;;;;;6.75;4.00;;;;;8.69;100.00;102542.75;5052182;28;59330;-75
2022/12/27 08:57:27;;;;;;;;;2.00;2.00;;;;;8.71;100.00;102543.72;5037208;28;45377;-78
2022/12/27 08:59:53;;;;;;;;;2.25;2.00;;;;;8.74;100.00;102540.34;5036490;28;49695;-75
2022/12/27 09:02:18;;;;;;;;;4.25;2.00;;;;;8.78;100.00;102558.06;5036799;28;46397;-75
2022/12/27 09:04:43;;;;;;;;;6.00;3.50;;;;;8.81;100.00;102559.13;5036247;28;62158;-76
2022/12/27 09:07:09;;;;;;;;;2.00;2.00;;;;;8.84;100.00;102560.97;5051909;28;54560;-75
2022/12/27 09:09:34;;;;;;;;;2.25;1.25;;;;;8.89;100.00;102557.75;5030606;28;45617;-75
2022/12/27 09:11:59;;;;;;;;;3.00;2.25;;;;;8.92;100.00;102556.97;5027468;28;46248;-74
2022/12/27 09:14:25;;;;;;;;;3.50;2.00;;;;;9.04;100.00;102572.44;5036043;28;57552;-75
2022/12/27 09:16:50;;;;;;;;;3.50;2.00;;;;;9.10;100.00;102564.78;5036374;28;55425;-77
2022/12/27 09:19:16;;;;;;;;;2.50;2.00;;;;;9.14;100.00;102561.47;5036164;28;53451;-75
2022/12/27 09:21:42;;;;;;;;;2.75;1.75;;;;;9.22;100.00;102554.81;5036142;28;60747;-74
2022/12/27 09:24:12;;;;;;;;;2.25;1.00;;;;;9.30;100.00;102558.69;5036619;28;45309;-75
2022/12/27 09:26:37;;;;;;;;;2.75;2.50;;;;;9.40;100.00;102567.91;5036792;28;45296;-75
2022/12/27 09:29:03;;;;;;;;;2.00;1.00;;;;;9.45;100.00;102569.91;5036824;28;47881;-76
2022/12/27 09:31:29;;;;;;;;;1.50;1.25;;;;;9.47;100.00;102569.94;5037089;28;46325;-77
2022/12/27 09:33:55;;;;;;;;;2.00;1.00;;;;;9.49;100.00;102584.13;5036366;28;60272;-77
2022/12/27 09:36:26;;;;;;;;;1.75;1.75;;;;;9.45;100.00;102571.63;5052062;28;45388;-74
2022/12/27 09:38:53;;;;;;;;;3.00;1.25;;;;;9.53;100.00;102590.41;5042972;28;45519;-76
2022/12/27 09:41:40;;;;;;;;;6.50;2.00;;;;;9.51;100.00;102578.91;5037368;28;46416;-75
2022/12/27 09:44:13;;;;;;;;;2.75;2.25;;;;;9.48;100.00;102578.75;5035064;28;45448;-74
2022/12/27 09:46:51;;;;;;;;;1.25;1.25;;;;;9.53;100.00;102585.13;5039206;28;45470;-78
2022/12/27 09:49:37;;;;;;;;;5.50;1.75;;;;;9.51;100.00;102576.28;5038694;28;45242;-77
2022/12/27 09:52:20;;;;;;;;;2.00;2.00;;;;;9.48;100.00;102578.75;5039922;28;46607;-76
2022/12/27 09:55:04;;;;;;;;;2.00;1.00;;;;;9.47;100.00;102567.31;5038275;28;45433;-75
2022/12/27 09:57:38;;;;;;;;;3.00;2.00;;;;;9.48;100.00;102576.13;5038538;28;45344;-76
2022/12/27 10:00:13;;;;;;;;;4.75;3.00;;;;;9.45;100.00;102561.97;5039826;28;45431;-76
2022/12/27 10:02:39;;;;;;;;;7.00;2.00;;;;;9.46;100.00;102568.16;5038455;28;46919;-77
2022/12/27 10:05:14;;;;;;;;;5.75;3.00;;;;;9.48;100.00;102560.31;5039577;28;45451;-78
2022/12/27 10:07:47;;;;;;;;;5.75;2.75;;;;;9.51;100.00;102568.34;5038737;28;45319;-77
2022/12/27 10:10:12;;;;;;;;;5.25;1.75;;;;;9.51;100.00;102565.72;5043558;28;45325;-77
2022/12/27 10:12:56;;;;;;;;;6.50;3.00;;;;;9.50;100.00;102567.47;5035089;28;46146;-76
2022/12/27 10:15:47;;;;;;;;;1.75;1.75;;;;;9.45;100.00;102545.25;5039220;28;45503;-75
2022/12/27 10:18:17;;;;;;;;;2.75;1.75;;;;;9.50;100.00;102553.38;5046883;28;45260;-75
2022/12/27 10:21:08;;;;;;;;;6.00;3.00;;;;;9.51;100.00;102550.78;5039499;28;45526;-74
2022/12/27 10:23:37;;;;;;;;;4.00;2.25;;;;;9.42;100.00;102535.47;5037929;28;46450;-77
2022/12/27 10:26:10;;;;;;;;;3.50;3.00;;;;;9.55;100.00;102552.75;5039157;28;45511;-74
2022/12/27 10:28:42;;;;;;;;;4.00;2.75;;;;;9.57;100.00;102552.78;5038132;28;45233;-77
2022/12/27 10:31:13;;;;;;;;;4.00;2.00;;;;;9.58;100.00;102544.03;5039518;28;45344;-74
2022/12/27 10:33:39;;;;;;;;;3.00;2.00;;;;;9.56;100.00;102543.09;5038256;28;45897;-76
2022/12/27 10:36:16;;;;;;;;;1.00;1.00;;;;;9.63;100.00;102546.03;5039173;28;45508;-75
2022/12/27 10:38:42;;;;;;;;;3.00;1.00;;;;;9.64;100.00;102549.56;5046140;28;45461;-75
2022/12/27 10:41:16;;;;;;;;;2.33;0.67;;;;;9.68;100.00;102555.03;5041862;28;55308;-74
2022/12/27 10:43:42;;;;;;;;;5.00;2.00;;;;;9.71;100.00;102552.56;5034562;28;47408;-77
2022/12/27 10:46:28;;;;;;;;;1.00;1.00;;;;;9.75;100.00;102543.03;5033496;28;45480;-74
2022/12/27 10:48:59;;;;;;;;;3.00;1.33;;;;;9.79;100.00;102546.69;5052533;28;45432;-74
2022/12/27 10:51:46;;;;;;;;;2.25;2.00;;;;;9.81;100.00;102534.47;5037648;28;45599;-78
2022/12/27 10:54:23;;;;;;;;;13.00;9.00;;;;;9.85;100.00;102545.19;5038499;28;46950;-77
2022/12/27 10:56:49;;;;;;;;;2.25;2.25;;;;;9.90;100.00;102540.09;5038501;28;45463;-77
2022/12/27 10:59:19;;;;;;;;;2.33;2.00;;;;;9.93;100.00;102545.53;5037579;28;45381;-77
2022/12/27 11:01:46;;;;;;;;;3.00;3.00;;;;;9.92;100.00;102538.44;5039059;28;45462;-76
2022/12/27 11:04:15;;;;;;;;;3.00;2.00;;;;;9.98;100.00;102539.59;5038646;28;45756;-75
2022/12/27 11:06:41;;;;;;;;;3.33;1.00;;;;;10.00;100.00;102541.38;5038553;28;45398;-75
2022/12/27 11:09:26;;;;;;;;;1.00;0.67;;;;;10.09;100.00;102541.78;5035915;28;45527;-75
2022/12/27 11:12:10;;;;;;;;;4.67;2.33;;;;;10.08;100.00;102537.34;5030592;28;45338;-76
2022/12/27 11:14:36;;;;;;;;;1.00;1.00;;;;;10.12;100.00;102526.03;5038284;28;46168;-76
2022/12/27 11:17:07;;;;;;;;;6.33;1.00;;;;;10.18;100.00;102529.84;5038446;28;45393;-76
2022/12/27 11:19:32;;;;;;;;;2.00;2.00;;;;;10.21;100.00;102518.50;5054239;28;45336;-75
2022/12/27 11:22:04;;;;;;;;;1.67;1.00;;;;;10.29;100.00;102506.53;5037137;28;49938;-77
2022/12/27 11:24:29;;;;;;;;;2.67;2.33;;;;;10.33;100.00;102503.16;5053955;28;45867;-77
2022/12/27 11:27:00;;;;;;;;;0.00;0.00;;;;;10.37;100.00;102499.81;5037736;28;59461;-76
2022/12/27 11:29:27;;;;;;;;;2.00;1.00;;;;;10.35;100.00;102496.22;5038319;28;45539;-75
2022/12/27 11:31:53;;;;;;;;;1.00;1.00;;;;;10.43;100.00;102493.84;5038536;28;45257;-77
2022/12/27 11:34:32;;;;;;;;;3.00;1.00;;;;;10.46;100.00;102491.34;5053956;28;45614;-75
2022/12/27 11:37:15;;;;;;;;;5.33;1.00;;;;;10.49;100.00;102470.31;5025788;28;45575;-75
2022/12/27 11:39:46;;;;;;;;;5.33;1.00;;;;;10.52;100.00;102469.56;5045123;28;45440;-76
2022/12/27 11:42:31;;;;;;;;;1.33;1.00;;;;;10.50;100.00;102458.94;5036960;28;45543;-75
2022/12/27 11:45:13;;;;;;;;;2.00;2.00;;;;;10.59;100.00;102466.28;5037531;28;47119;-75
2022/12/27 11:48:07;;;;;;;;;0.00;0.00;;;;;10.62;100.00;102456.75;5036731;28;45203;-74
2022/12/27 11:50:53;;;;;;;;;1.00;1.00;;;;;10.69;100.00;102460.50;5030491;28;45449;-78
2022/12/27 11:53:27;;;;;;;;;1.00;1.00;;;;;10.72;100.00;102458.88;5038059;28;45522;-74
2022/12/27 11:56:18;;;;;;;;;0.67;0.00;;;;;10.74;100.00;102467.75;5036795;28;45901;-77
2022/12/27 11:59:08;;;;;;;;;2.00;1.00;;;;;10.77;100.00;102466.97;5053054;28;45425;-76
2022/12/27 12:01:53;;;;;;;;;2.00;1.00;;;;;10.80;100.00;102466.16;5037937;28;45157;-74
2022/12/27 12:04:42;;;;;;;;;2.00;0.00;;;;;10.85;100.00;102470.78;5038094;28;45415;-74
2022/12/27 12:07:29;;;;;;;;;1.67;0.67;;;;;10.88;100.00;102472.66;5037227;28;46836;-77
2022/12/27 12:10:31;;;;;;;;;1.00;1.00;;;;;10.92;100.00;102470.19;5028522;28;45331;-75
2022/12/27 12:13:12;;;;;;;;;0.67;0.00;;;;;10.94;100.00;102459.66;5029411;28;45363;-75
2022/12/27 12:15:52;;;;;;;;;1.00;1.00;;;;;10.97;100.00;102465.97;5037805;28;45435;-77
2022/12/27 12:18:52;;;;;;;;;2.00;1.00;;;;;10.99;100.00;102468.66;5037763;28;46633;-76
2022/12/27 12:21:35;;;;;;;;;0.00;0.00;;;;;11.04;100.00;102461.78;5038403;28;45324;-76
2022/12/27 12:24:16;;;;;;;;;1.00;1.00;;;;;11.05;100.00;102463.56;5037116;28;45522;-77
2022/12/27 12:26:47;;;;;;;;;1.00;1.00;;;;;11.07;100.00;102451.28;5033466;28;45459;-75
2022/12/27 12:29:31;;;;;;;;;1.00;1.00;;;;;11.08;100.00;102446.91;5037268;28;45339;-75
2022/12/27 12:32:13;;;;;;;;;0.00;0.00;;;;;11.08;100.00;102445.19;5037111;28;45174;-79
2022/12/27 12:34:57;;;;;;;;;0.00;0.00;;;;;11.08;100.00;102424.03;5037186;28;45379;-76
2022/12/27 12:37:51;;;;;;;;;0.00;0.00;;;;;11.14;100.00;102429.53;5037164;28;45522;-76
2022/12/27 12:40:45;;;;;;;;;1.00;0.00;;;;;11.17;100.00;102421.69;5016350;28;46815;-74
2022/12/27 12:43:41;;;;;;;;;2.33;0.00;;;;;11.17;100.00;102426.06;5025790;28;45229;-75
2022/12/27 12:46:15;;;;;;;;;4.00;1.00;;;;;11.13;100.00;102408.31;5037000;28;45470;-76
2022/12/27 12:49:02;;;;;;;;;0.00;0.00;;;;;11.15;100.00;102415.47;5028220;28;45183;-77
2022/12/27 12:51:39;;;;;;;;;1.00;1.00;;;;;11.19;100.00;102412.09;5036832;28;45510;-74
2022/12/27 12:54:22;;;;;;;;;0.33;0.33;;;;;11.19;100.00;102406.78;5037398;28;45478;-75
2022/12/27 12:57:08;;;;;;;;;0.00;0.00;;;;;11.20;100.00;102399.75;5037153;28;45393;-74
2022/12/27 13:00:14;;;;;;;;;0.00;0.00;;;;;11.19;100.00;102390.94;5036949;28;45457;-75
2022/12/27 13:03:15;;;;;;;;;0.00;0.00;;;;;11.19;100.00;102387.41;5033819;28;47757;-77
2022/12/27 13:05:56;;;;;;;;;1.00;1.00;;;;;11.20;100.00;102389.19;5047868;28;45344;-77
2022/12/27 13:09:10;;;;;;;;;4.00;1.00;;;;;11.19;100.00;102376.81;5035617;28;45487;-74
2022/12/27 13:12:01;;;;;;;;;1.33;0.67;;;;;11.21;100.00;102376.00;4993166;28;45972;-75
2022/12/27 13:14:40;;;;;;;;;1.00;1.00;;;;;11.23;100.00;102368.13;5047267;28;46463;-75
2022/12/27 13:17:35;;;;;;;;;0.67;0.67;;;;;11.23;100.00;102365.47;5051790;28;45624;-77
2022/12/27 13:20:16;;;;;;;;;0.00;0.00;;;;;11.24;100.00;102364.66;5045119;28;45376;-76
2022/12/27 13:23:12;;;;;;;;;3.00;1.00;;;;;11.23;100.00;102365.47;5036685;28;45251;-78